Time,TemperatureF,DewpointF,PressureIn,WindDirection,WindDirectionDegrees,WindSpeedMPH,WindSpeedGustMPH,Humidity,HourlyPrecipIn,Conditions,Clouds,dailyrainin,SoftwareType,DateUTC
2013-03-26 00:00:00,42.5,33.0,30.09,North,-999,0.0,0.0,69,0.00,,,-99.99,WeatherLink 5.7,2013-03-26 05:00:00,
2013-03-26 00:30:00,41.4,32.7,30.10,North,-999,0.0,0.0,71,0.00,,,-99.99,WeatherLink 5.7,2013-03-26 05:30:00,
2013-03-26 01:00:00,41.3,33.0,30.10,North,-999,0.0,0.0,72,0.00,,,-99.99,WeatherLink 5.7,2013-03-26 06:00:00,
2013-03-26 01:30:00,40.2,32.6,30.12,North,-999,0.0,0.0,74,0.00,,,-99.99,WeatherLink 5.7,2013-03-26 06:30:00,
2013-03-26 02:00:00,41.6,32.5,30.12,NNW,337,1.0,11.0,70,0.00,,,-99.99,WeatherLink 5.7,2013-03-26 07:00:00,
2013-03-26 02:30:00,40.9,32.2,30.13,North,0,1.0,7.0,71,0.00,,,-99.99,WeatherLink 5.7,2013-03-26 07:30:00,
2013-03-26 03:00:00,40.3,31.6,30.14,NNW,337,0.0,9.0,71,0.00,,,-99.99,WeatherLink 5.7,2013-03-26 08:00:00,
2013-03-26 03:30:00,39.8,30.8,30.14,NNW,337,0.0,7.0,70,0.00,,,-99.99,WeatherLink 5.7,2013-03-26 08:30:00,
2013-03-26 04:00:00,39.1,30.5,30.14,NW,315,0.0,1.0,71,0.00,,,-99.99,WeatherLink 5.7,2013-03-26 09:00:00,
2013-03-26 04:30:00,38.0,30.1,30.15,North,-999,0.0,0.0,73,0.00,,,-99.99,WeatherLink 5.7,2013-03-26 09:30:00,
2013-03-26 05:00:00,37.0,29.5,30.16,North,-999,0.0,0.0,74,0.00,,,-99.99,WeatherLink 5.7,2013-03-26 10:00:00,
2013-03-26 05:30:00,36.5,29.3,30.16,NW,315,1.0,10.0,75,0.00,,,-99.99,WeatherLink 5.7,2013-03-26 10:30:00,
2013-03-26 06:00:00,36.4,28.9,30.16,NW,315,4.0,11.0,74,0.00,,,-99.99,WeatherLink 5.7,2013-03-26 11:00:00,
2013-03-26 06:30:00,36.3,28.8,30.17,NW,315,5.0,12.0,74,0.00,,,-99.99,WeatherLink 5.7,2013-03-26 11:30:00,
2013-03-26 07:00:00,35.4,28.3,30.18,NW,315,2.0,10.0,75,0.00,,,-99.99,WeatherLink 5.7,2013-03-26 12:00:00,
2013-03-26 07:30:00,34.5,27.4,30.19,North,-999,0.0,0.0,75,0.00,,,-99.99,WeatherLink 5.7,2013-03-26 12:30:00,
2013-03-26 08:00:00,33.7,26.6,30.20,North,-999,0.0,0.0,75,0.00,,,-99.99,WeatherLink 5.7,2013-03-26 13:00:00,
2013-03-26 08:30:00,34.4,27.3,30.21,North,-999,0.0,0.0,75,0.00,,,-99.99,WeatherLink 5.7,2013-03-26 13:30:00,
2013-03-26 09:00:00,37.5,30.0,30.21,WNW,292,1.0,10.0,74,0.00,,,-99.99,WeatherLink 5.7,2013-03-26 14:00:00,
2013-03-26 09:30:00,40.8,32.1,30.22,WNW,292,2.0,12.0,71,0.00,,,-99.99,WeatherLink 5.7,2013-03-26 14:30:00,
2013-03-26 10:00:00,42.1,31.9,30.23,NW,315,6.0,18.0,67,0.00,,,-99.99,WeatherLink 5.7,2013-03-26 15:00:00,
2013-03-26 10:30:00,43.7,30.7,30.23,NW,315,7.0,17.0,60,0.00,,,-99.99,WeatherLink 5.7,2013-03-26 15:30:00,
2013-03-26 11:00:00,45.0,30.2,30.23,NW,315,9.0,23.0,56,0.00,,,-99.99,WeatherLink 5.7,2013-03-26 16:00:00,
2013-03-26 11:30:00,46.4,30.6,30.23,NW,315,7.0,16.0,54,0.00,,,-99.99,WeatherLink 5.7,2013-03-26 16:30:00,
2013-03-26 12:00:00,47.5,30.3,30.22,NW,315,6.0,18.0,51,0.00,,,-99.99,WeatherLink 5.7,2013-03-26 17:00:00,
2013-03-26 12:30:00,48.7,29.4,30.22,WNW,292,5.0,19.0,47,0.00,,,-99.99,WeatherLink 5.7,2013-03-26 17:30:00,
2013-03-26 13:00:00,50.4,31.4,30.21,NW,315,8.0,18.0,48,0.00,,,-99.99,WeatherLink 5.7,2013-03-26 18:00:00,
2013-03-26 13:30:00,51.1,31.0,30.20,NW,315,9.0,20.0,46,0.00,,,-99.99,WeatherLink 5.7,2013-03-26 18:30:00,
2013-03-26 14:00:00,52.0,31.3,30.18,NW,315,8.0,17.0,45,0.00,,,-99.99,WeatherLink 5.7,2013-03-26 19:00:00,
2013-03-26 14:30:00,53.0,31.1,30.17,WNW,292,7.0,19.0,43,0.00,,,-99.99,WeatherLink 5.7,2013-03-26 19:30:00,
2013-03-26 15:00:00,54.1,30.9,30.16,NW,315,6.0,19.0,41,0.00,,,-99.99,WeatherLink 5.7,2013-03-26 20:00:00,
2013-03-26 15:30:00,55.0,30.5,30.15,NW,315,8.0,18.0,39,0.00,,,-99.99,WeatherLink 5.7,2013-03-26 20:30:00,
2013-03-26 16:00:00,55.7,31.1,30.15,NW,315,6.0,20.0,39,0.00,,,-99.99,WeatherLink 5.7,2013-03-26 21:00:00,
2013-03-26 16:30:00,56.7,31.4,30.14,NW,315,7.0,22.0,38,0.00,,,-99.99,WeatherLink 5.7,2013-03-26 21:30:00,
2013-03-26 17:00:00,57.1,31.7,30.13,North,0,10.0,20.0,38,0.00,,,-99.99,WeatherLink 5.7,2013-03-26 22:00:00,
2013-03-26 17:30:00,56.8,31.4,30.13,NW,315,8.0,20.0,38,0.00,,,-99.99,WeatherLink 5.7,2013-03-26 22:30:00,
2013-03-26 18:00:00,56.3,32.3,30.13,NW,315,8.0,20.0,40,0.00,,,-99.99,WeatherLink 5.7,2013-03-26 23:00:00,